Flight Track Log - Related Links

Times and Time Zones

All times are in EDT time to prevent confusion due to time zone crossing. See the DAL1979 flight status page for this flight to view local times or setup timezone preferences in your user account.

Time Position Orientation Groundspeed Altitude Reporting Facility
EDT Latitude Longitude Course Direction KTS MPH feet Rate Location/Type
Wed 04:00:47 PM 28.3480 -81.3390 206° Southwest 241 277 2,300  Level FlightAware ADS-B
Wed 04:01:57 PM 28.3380 -81.4320 263° West 253 291 4,500 2,262 Climbing FlightAware ADS-B
Wed 04:02:57 PM 28.3310 -81.5150 265° West 265 305 7,200 2,743 Climbing FlightAware ADS-B
Wed 04:03:42 PM 28.3250 -81.5760 264° West 259 298 9,300 1,650 Climbing FlightAware ADS-B
Wed 04:05:37 PM 28.3120 -81.7550 265° West 350 403 11,600 1,516 Climbing FlightAware ADS-B
Wed 04:06:52 PM 28.3000 -81.9020 265° West 369 425 14,100 2,050 Climbing FlightAware ADS-B
Wed 04:07:37 PM 28.2920 -81.9970 265° West 376 433 15,700 2,080 Climbing FlightAware ADS-B
Wed 04:08:07 PM 28.2880 -82.0540 265° West 378 435 16,700 1,855 Climbing FlightAware ADS-B
Wed 04:08:32 PM 28.2970 -82.1050 281° West 383 441 17,400 1,569 Climbing FlightAware ADS-B
Wed 04:09:12 PM 28.3430 -82.1620 313° West 401 461 18,400 1,650 Climbing FlightAware ADS-B
Wed 04:09:52 PM 28.4140 -82.2030 333° Northwest 409 471 19,600 1,553 Climbing FlightAware ADS-B
Wed 04:10:37 PM 28.4890 -82.2470 333° Northwest 415 478 20,600 1,412 Climbing FlightAware ADS-B
Wed 04:11:17 PM 28.5560 -82.2930 329° Northwest 422 486 21,600 1,412 Climbing FlightAware ADS-B
Wed 04:12:02 PM 28.6320 -82.3480 328° Northwest 428 493 22,600 1,280 Climbing FlightAware ADS-B
Wed 04:12:32 PM 28.6840 -82.3860 327° Northwest 434 499 23,200 1,137 Climbing FlightAware ADS-B
Wed 04:13:37 PM 28.7890 -82.4610 328° Northwest 441 507 24,400 1,200 Climbing FlightAware ADS-B
Wed 04:14:22 PM 28.8730 -82.5230 327° Northwest 448 516 25,400 1,200 Climbing FlightAware ADS-B
Wed 04:15:02 PM 28.9380 -82.5690 328° Northwest 449 517 26,100 1,125 Climbing FlightAware ADS-B
Wed 04:15:42 PM 29.0120 -82.6220 328° Northwest 450 518 26,900 1,125 Climbing FlightAware ADS-B
Wed 04:16:22 PM 29.0840 -82.6750 327° Northwest 451 519 27,600 880 Climbing FlightAware ADS-B
Wed 04:16:57 PM 29.1390 -82.7150 328° Northwest 456 525 28,000 600 Climbing FlightAware ADS-B
Wed 04:17:42 PM 29.2130 -82.7700 327° Northwest 456 525 28,400 253 Climbing FlightAware ADS-B
Wed 04:18:32 PM 29.2880 -82.8260 327° Northwest 456 525 28,400 1,500 Level FlightAware ADS-B
Wed 04:18:38 PM 29.3103 -82.8378 338° Northwest 447 514 29,800  Climbing Jacksonville Center
Wed 04:19:12 PM 29.3490 -82.8700 328° Northwest 456 525 28,400 1,000 Descending FlightAware ADS-B
Wed 04:19:38 PM 29.4125 -82.9139 327° Northwest 447 514 30,800  Climbing Jacksonville Center
Wed 04:19:52 PM 29.4090 -82.9150 327° Northwest 456 525 28,400 -2,667 Descending FlightAware ADS-B
Wed 04:20:32 PM 29.4690 -82.9600 327° Northwest 456 525 28,400 4,565 Level FlightAware ADS-B
Wed 04:20:38 PM 29.5233 -82.9928 328° Northwest 453 521 31,900  Climbing Jacksonville Center
Wed 04:21:12 PM 29.5290 -83.0050 327° Northwest 456 525 28,400 100 Descending FlightAware ADS-B
Wed 04:21:38 PM 29.6256 -83.0647 329° Northwest 453 521 32,000 2,512 Climbing Jacksonville Center
Wed 04:22:38 PM 29.7444 -83.1197 338° Northwest 448 516 32,000  Level Jacksonville Center
Wed 04:23:00 PM 29.7253 -83.0979 338° Northwest  Level FlightAware Approximate
Wed 04:23:38 PM 29.8592 -83.1703 339° North 448 516 32,000  Level Jacksonville Center
Wed 04:24:00 PM 29.8345 -83.1478 338° Northwest  Level FlightAware Approximate
Wed 04:24:38 PM 29.9758 -83.2233 339° North 448 516 32,000  Level Jacksonville Center
Wed 04:25:38 PM 30.1053 -83.2839 338° Northwest 448 516 32,000  Level Jacksonville Center
Wed 04:26:38 PM 30.2219 -83.3372 338° Northwest 448 516 32,000  Level Jacksonville Center
Wed 04:27:38 PM 30.3344 -83.3908 338° Northwest 448 516 32,000  Level Jacksonville Center
Wed 04:28:38 PM 30.4511 -83.4469 337° Northwest 448 516 32,000  Level Jacksonville Center
Wed 04:29:38 PM 30.5636 -83.4981 339° North 448 516 32,000  Level Jacksonville Center
Wed 04:30:38 PM 30.6783 -83.5544 337° Northwest 443 510 32,000  Level Jacksonville Center
Wed 04:31:38 PM 30.7886 -83.6083 337° Northwest 437 503 32,000  Level Jacksonville Center
Wed 04:32:38 PM 30.9011 -83.6600 338° Northwest 437 503 32,000  Level Jacksonville Center
Wed 04:33:38 PM 31.0156 -83.7119 339° North 437 503 32,000  Level Jacksonville Center
Wed 04:34:38 PM 31.1133 -83.7614 337° Northwest 431 496 32,000  Level Jacksonville Center
Wed 04:35:38 PM 31.2258 -83.8158 338° Northwest 431 496 32,000  Level Jacksonville Center
Wed 04:37:45 PM 31.4753 -83.9392 337° Northwest 436 502 32,000  Level Atlanta Center
Wed 04:38:45 PM 31.5964 -83.9803 344° North 436 502 32,000  Level Atlanta Center
Wed 04:39:45 PM 31.7236 -84.0072 350° North 441 507 32,000  Level Atlanta Center
Wed 04:40:46 PM 31.8467 -84.0317 350° North 448 516 32,000  Level Atlanta Center
Wed 04:41:46 PM 31.9719 -84.0583 350° North 453 521 32,000  Level Atlanta Center
Wed 04:42:45 PM 32.0953 -84.0856 349° North 453 521 32,000  Level Atlanta Center
Wed 04:43:45 PM 32.2161 -84.1150 348° North 448 516 32,000  Level Atlanta Center
Wed 04:49:02 PM 32.8630 -84.2520 348° North 440 506 32,000  Level FlightAware ADS-B
Wed 04:50:17 PM 33.0110 -84.2860 349° North 439 505 32,000  Level FlightAware ADS-B
Wed 04:51:02 PM 33.1030 -84.3070 349° North 438 504 32,000  Level FlightAware ADS-B
Wed 04:51:42 PM 33.1800 -84.3240 350° North 438 504 32,000  Level FlightAware ADS-B
Wed 04:52:17 PM 33.2550 -84.3410 349° North 430 495 32,000  Level FlightAware ADS-B
Wed 04:53:07 PM 33.3560 -84.3650 349° North 438 504 32,000  Level FlightAware ADS-B
Wed 04:53:42 PM 33.4230 -84.3800 349° North 438 504 32,000  Level FlightAware ADS-B
Wed 04:54:27 PM 33.5140 -84.4010 349° North 440 506 32,000  Level FlightAware ADS-B
Wed 04:55:07 PM 33.5970 -84.4200 349° North 443 510 32,000  Level FlightAware ADS-B
Wed 04:55:42 PM 33.6670 -84.4360 349° North 445 512 32,000  Level FlightAware ADS-B
Wed 04:56:16 PM 33.7440 -84.4549 348° North 447 514 32,000  Level FlightAware ADS-B
Wed 04:56:47 PM 33.8084 -84.4706 349° North 449 517 32,000  Level FlightAware ADS-B
Wed 04:56:59 PM 33.8315 -84.4764 348° North 449 517 32,000  Level FlightAware ADS-B
Wed 04:57:30 PM 33.8948 -84.4980 344° North 450 518 32,000  Level FlightAware ADS-B
Wed 04:58:01 PM 33.9557 -84.5200 343° North 452 520 32,000  Level FlightAware ADS-B
Wed 04:58:38 PM 34.0305 -84.5461 344° North 452 520 32,000  Level FlightAware ADS-B
Wed 04:59:09 PM 34.0936 -84.5674 344° North 454 522 32,000  Level FlightAware ADS-B
Wed 04:59:42 PM 34.1615 -84.5900 345° North 453 521 32,000  Level FlightAware ADS-B
Wed 05:00:21 PM 34.2399 -84.6167 344° North 453 521 32,000  Level FlightAware ADS-B
Wed 05:00:52 PM 34.3021 -84.6387 344° North 453 521 32,000  Level FlightAware ADS-B
Wed 05:01:23 PM 34.3649 -84.6611 344° North 452 520 32,000  Level FlightAware ADS-B
Wed 05:01:55 PM 34.4284 -84.6843 343° North 451 519 32,000  Level FlightAware ADS-B
Wed 05:02:10 PM 34.4572 -84.6994 337° Northwest 451 519 32,000  Level FlightAware ADS-B
Wed 05:02:26 PM 34.4860 -84.7222 327° Northwest 450 518 32,000  Level FlightAware ADS-B
Wed 05:02:57 PM 34.5367 -84.7688 323° Northwest 451 519 32,000  Level FlightAware ADS-B
Wed 05:03:28 PM 34.5877 -84.8160 323° Northwest 451 519 32,000  Level FlightAware ADS-B
Wed 05:03:59 PM 34.6393 -84.8633 323° Northwest 450 518 32,000  Level FlightAware ADS-B
Wed 05:04:30 PM 34.6909 -84.9104 323° Northwest 450 518 32,000  Level FlightAware ADS-B
Wed 05:05:08 PM 34.7545 -84.9687 323° Northwest 450 518 32,000  Level FlightAware ADS-B
Wed 05:05:39 PM 34.8061 -85.0160 323° Northwest 449 517 32,000  Level FlightAware ADS-B
Wed 05:06:10 PM 34.8571 -85.0627 323° Northwest 448 516 32,000  Level FlightAware ADS-B
Wed 05:06:42 PM 34.9098 -85.1111 323° Northwest 447 514 32,000  Level FlightAware ADS-B
Wed 05:07:13 PM 34.9625 -85.1592 323° Northwest 448 516 32,000  Level FlightAware ADS-B
Wed 05:07:42 PM 35.0107 -85.2023 324° Northwest 447 514 32,000  Level FlightAware ADS-B
Wed 05:08:03 PM 35.0486 -85.2283 331° Northwest 449 517 32,000  Level FlightAware ADS-B
Wed 05:08:15 PM 35.0705 -85.2403 336° Northwest 448 516 32,000  Level FlightAware ADS-B
Wed 05:08:34 PM 35.1077 -85.2569 340° North 447 514 32,000  Level FlightAware ADS-B
Wed 05:09:06 PM 35.1719 -85.2766 346° North 449 517 32,000  Level FlightAware ADS-B
Wed 05:09:36 PM 35.2340 -85.2936 347° North 448 516 32,000  Level FlightAware ADS-B
Wed 05:10:07 PM 35.2956 -85.3107 347° North 448 516 32,000  Level FlightAware ADS-B
Wed 05:10:37 PM 35.3572 -85.3284 347° North 448 516 32,000  Level FlightAware ADS-B
Wed 05:11:07 PM 35.4186 -85.3462 347° North 448 516 32,000  Level FlightAware ADS-B
Wed 05:11:38 PM 35.4800 -85.3639 347° North 448 516 32,000  Level FlightAware ADS-B
Wed 05:12:10 PM 35.5452 -85.3851 345° North 448 516 32,000  Level FlightAware ADS-B
Wed 05:12:42 PM 35.6088 -85.4058 345° North 448 516 32,000  Level FlightAware ADS-B
Wed 05:13:13 PM 35.6715 -85.4259 345° North 448 516 32,000  Level FlightAware ADS-B
Wed 05:13:44 PM 35.7327 -85.4453 346° North 448 516 32,000  Level FlightAware ADS-B
Wed 05:14:16 PM 35.7968 -85.4657 346° North 448 516 32,000  Level FlightAware ADS-B
Wed 05:15:12 PM 35.9070 -85.5010 345° North 447 514 32,000  Level FlightAware ADS-B
Wed 05:15:57 PM 35.9900 -85.5280 345° North 447 514 32,000  Level FlightAware ADS-B
Wed 05:16:02 PM 36.0113 -85.5342 347° North 448 516 32,000  Level FlightAware ADS-B
Wed 05:16:33 PM 36.0724 -85.5537 346° North 448 516 32,000  Level FlightAware ADS-B
Wed 05:17:03 PM 36.1326 -85.5732 345° North 448 516 32,000  Level FlightAware ADS-B
Wed 05:17:33 PM 36.1936 -85.5928 345° North 448 516 32,000  Level FlightAware ADS-B
Wed 05:18:14 PM 36.2749 -85.6191 345° North 449 517 32,000  Level FlightAware ADS-B
Wed 05:18:44 PM 36.3351 -85.6387 345° North 449 517 32,000  Level FlightAware ADS-B
Wed 05:19:17 PM 36.4029 -85.6607 345° North 449 517 32,000  Level FlightAware ADS-B
Wed 05:20:12 PM 36.5128 -85.6963 345° North 449 517 32,000  Level FlightAware ADS-B
Wed 05:20:43 PM 36.5754 -85.7168 345° North 450 518 32,000  Level FlightAware ADS-B
Wed 05:21:13 PM 36.6361 -85.7366 345° North 450 518 32,000  Level FlightAware ADS-B
Wed 05:21:45 PM 36.6997 -85.7573 345° North 449 517 32,000  Level FlightAware ADS-B
Wed 05:22:16 PM 36.7630 -85.7782 345° North 450 518 32,000  Level FlightAware ADS-B
Wed 05:23:37 PM 36.9220 -85.8300 345° North 448 516 32,000  Level FlightAware ADS-B
Wed 05:24:17 PM 36.9950 -85.8540 345° North 448 516 32,000  Level FlightAware ADS-B
Wed 05:24:57 PM 37.0800 -85.8820 345° North 446 513 32,000  Level FlightAware ADS-B
Wed 05:25:08 PM 37.1080 -85.8916 345° North 447 514 32,000  Level FlightAware ADS-B
Wed 05:25:42 PM 37.1600 -85.9090 345° North 446 513 32,000  Level FlightAware ADS-B
Wed 05:26:22 PM 37.2550 -85.9390 346° North 447 514 32,000  Level FlightAware ADS-B
Wed 05:27:07 PM 37.3460 -85.9480 356° North 447 514 32,000  Level FlightAware ADS-B
Wed 05:27:47 PM 37.4290 -85.9540 357° North 448 516 32,000  Level FlightAware ADS-B
Wed 05:28:32 PM 37.5240 -85.9610 357° North 448 516 32,000  Level FlightAware ADS-B
Wed 05:29:12 PM 37.6010 -85.9660 357° North 448 516 32,000  Level FlightAware ADS-B
Wed 05:29:52 PM 37.6870 -85.9840 351° North 445 512 32,000  Level FlightAware ADS-B
Wed 05:30:37 PM 37.7720 -86.0270 338° Northwest 444 511 32,000  Level FlightAware ADS-B
Wed 05:31:22 PM 37.8590 -86.0760 336° Northwest 444 511 32,000  Level FlightAware ADS-B
Wed 05:32:02 PM 37.9310 -86.1250 332° Northwest 442 509 32,000  Level FlightAware ADS-B
Wed 05:32:47 PM 38.0050 -86.1890 326° Northwest 441 507 32,000  Level FlightAware ADS-B
Wed 05:33:27 PM 38.0720 -86.2490 325° Northwest 440 506 32,000  Level FlightAware ADS-B
Wed 05:34:07 PM 38.1390 -86.3060 326° Northwest 437 503 32,000  Level FlightAware ADS-B
Wed 05:34:52 PM 38.2140 -86.3720 325° Northwest 434 499 32,000  Level FlightAware ADS-B
Wed 05:35:32 PM 38.2770 -86.4270 326° Northwest 431 496 32,000  Level FlightAware ADS-B
Wed 05:36:17 PM 38.3520 -86.4930 325° Northwest 429 494 32,000  Level FlightAware ADS-B
Wed 05:36:47 PM 38.4040 -86.5380 326° Northwest 426 490 32,000  Level FlightAware ADS-B
Wed 05:37:52 PM 38.5090 -86.6260 327° Northwest 422 486 32,000  Level FlightAware ADS-B
Wed 05:38:27 PM 38.5720 -86.6550 340° North 422 486 32,000  Level FlightAware ADS-B
Wed 05:39:17 PM 38.6680 -86.6910 344° North 420 483 32,000  Level FlightAware ADS-B
Wed 05:39:57 PM 38.7460 -86.7130 348° North 424 488 32,000  Level FlightAware ADS-B
Wed 05:40:42 PM 38.8330 -86.7300 351° North 427 491 32,000 353 Level FlightAware ADS-B
Wed 05:41:22 PM 38.9130 -86.7470 351° North 428 493 32,500 918 Climbing FlightAware ADS-B
Wed 05:42:07 PM 39.0000 -86.7650 351° North 425 489 33,300 988 Climbing FlightAware ADS-B
Wed 05:42:47 PM 39.0770 -86.7800 351° North 422 486 33,900 525 Climbing FlightAware ADS-B
Wed 05:43:27 PM 39.1560 -86.7960 351° North 417 480 34,000 71 Climbing FlightAware ADS-B
Wed 05:44:12 PM 39.2430 -86.8130 351° North 417 480 34,000  Level FlightAware ADS-B
Wed 05:44:52 PM 39.3160 -86.8270 352° North 420 483 34,000  Level FlightAware ADS-B
Wed 05:45:37 PM 39.4030 -86.8450 351° North 423 487 34,000  Level FlightAware ADS-B
Wed 05:46:17 PM 39.4820 -86.8600 352° North 425 489 34,000  Level FlightAware ADS-B
Wed 05:46:52 PM 39.5440 -86.8720 352° North 425 489 34,000  Level FlightAware ADS-B
Wed 05:47:42 PM 39.6360 -86.8910 351° North 425 489 34,000  Level FlightAware ADS-B
Wed 05:48:17 PM 39.7130 -86.9050 352° North 425 489 34,000  Level FlightAware ADS-B
Wed 05:49:07 PM 39.8130 -86.9250 351° North 425 489 34,000  Level FlightAware ADS-B
Wed 05:49:57 PM 39.9050 -86.9440 351° North 425 489 34,000  Level FlightAware ADS-B
Wed 05:50:42 PM 39.9980 -86.9620 352° North 425 489 34,000  Level FlightAware ADS-B
Wed 05:51:52 PM 40.1320 -87.0140 343° North 423 487 34,000  Level FlightAware ADS-B
Wed 05:52:27 PM 40.1900 -87.0370 343° North 424 488 34,000  Level FlightAware ADS-B
Wed 05:53:07 PM 40.2670 -87.0670 343° North 426 490 34,000  Level FlightAware ADS-B
Wed 05:53:52 PM 40.3530 -87.1000 344° North 428 493 34,000  Level FlightAware ADS-B
Wed 05:54:27 PM 40.4230 -87.1260 344° North 430 495 34,000  Level FlightAware ADS-B
Wed 05:55:17 PM 40.5120 -87.1610 343° North 431 496 34,000  Level FlightAware ADS-B
Wed 05:55:57 PM 40.5930 -87.1930 343° North 432 497 34,000  Level FlightAware ADS-B
Wed 05:56:42 PM 40.6780 -87.2290 342° North 434 499 34,000  Level FlightAware ADS-B
Wed 05:57:22 PM 40.7620 -87.2630 343° North 435 501 34,000  Level FlightAware ADS-B
Wed 05:58:07 PM 40.8470 -87.2980 343° North 437 503 34,000  Level FlightAware ADS-B
Wed 05:58:47 PM 40.9240 -87.3300 343° North 437 503 34,000  Level FlightAware ADS-B
Wed 05:59:27 PM 40.9960 -87.3600 343° North 437 503 34,000  Level FlightAware ADS-B
Wed 06:00:12 PM 41.0870 -87.3980 343° North 437 503 34,000  Level FlightAware ADS-B
Wed 06:00:52 PM 41.1660 -87.4310 343° North 437 503 34,000  Level FlightAware ADS-B
Wed 06:01:37 PM 41.2520 -87.4670 343° North 437 503 34,000  Level FlightAware ADS-B
Wed 06:02:17 PM 41.3290 -87.4990 343° North 436 502 34,000  Level FlightAware ADS-B
Wed 06:02:57 PM 41.4070 -87.5320 342° North 437 503 34,000  Level FlightAware ADS-B
Wed 06:03:42 PM 41.4940 -87.5690 342° North 436 502 34,000  Level FlightAware ADS-B
Wed 06:04:22 PM 41.5730 -87.6020 343° North 437 503 34,000  Level FlightAware ADS-B
Wed 06:05:07 PM 41.6560 -87.6370 343° North 437 503 34,000  Level FlightAware ADS-B
Wed 06:05:47 PM 41.7360 -87.6710 342° North 438 504 34,000  Level FlightAware ADS-B
Wed 06:06:27 PM 41.8110 -87.7030 342° North 439 505 34,000  Level FlightAware ADS-B
Wed 06:07:12 PM 41.8960 -87.7400 342° North 440 506 34,000  Level FlightAware ADS-B
Wed 06:07:52 PM 41.9750 -87.7740 342° North 441 507 34,000  Level FlightAware ADS-B
Wed 06:08:37 PM 42.0610 -87.8110 342° North 442 509 34,000  Level FlightAware ADS-B
Wed 06:09:17 PM 42.1430 -87.8460 342° North 442 509 34,000  Level FlightAware ADS-B
Wed 06:09:57 PM 42.2210 -87.8800 342° North 442 509 34,000  Level FlightAware ADS-B
Wed 06:10:42 PM 42.3040 -87.9160 342° North 442 509 34,000  Level FlightAware ADS-B
Wed 06:11:22 PM 42.3850 -87.9570 340° North 440 506 34,000  Level FlightAware ADS-B
Wed 06:12:02 PM 42.4520 -88.0190 326° Northwest 438 504 34,000  Level FlightAware ADS-B
Wed 06:12:47 PM 42.5200 -88.0960 320° Northwest 439 505 34,000  Level FlightAware ADS-B
Wed 06:13:27 PM 42.5820 -88.1680 319° Northwest 440 506 34,000  Level FlightAware ADS-B
Wed 06:14:12 PM 42.6540 -88.2510 320° Northwest 440 506 34,000  Level FlightAware ADS-B
Wed 06:14:52 PM 42.7150 -88.3220 319° Northwest 441 507 34,000  Level FlightAware ADS-B
Wed 06:15:32 PM 42.7780 -88.3950 320° Northwest 442 509 34,000  Level FlightAware ADS-B
Wed 06:16:17 PM 42.8460 -88.4750 319° Northwest 441 507 34,000  Level FlightAware ADS-B
Wed 06:16:57 PM 42.9090 -88.5480 320° Northwest 441 507 34,000  Level FlightAware ADS-B
Wed 06:17:42 PM 42.9800 -88.6310 319° Northwest 441 507 34,000  Level FlightAware ADS-B
Wed 06:18:22 PM 43.0410 -88.7010 320° Northwest 442 509 34,000  Level FlightAware ADS-B
Wed 06:19:02 PM 43.1030 -88.7730 320° Northwest 441 507 34,000  Level FlightAware ADS-B
Wed 06:19:47 PM 43.1710 -88.8520 320° Northwest 441 507 34,000  Level FlightAware ADS-B
Wed 06:20:27 PM 43.2360 -88.9290 319° Northwest 440 506 34,000  Level FlightAware ADS-B
Wed 06:21:12 PM 43.3050 -89.0100 320° Northwest 440 506 34,000  Level FlightAware ADS-B
Wed 06:21:52 PM 43.3660 -89.0820 319° Northwest 441 507 34,000  Level FlightAware ADS-B
Wed 06:22:32 PM 43.4290 -89.1560 320° Northwest 442 509 34,000  Level FlightAware ADS-B
Wed 06:23:17 PM 43.4990 -89.2390 319° Northwest 444 511 34,000  Level FlightAware ADS-B
Wed 06:23:57 PM 43.5610 -89.3130 319° Northwest 444 511 34,000  Level FlightAware ADS-B
Wed 06:24:42 PM 43.6300 -89.3950 319° Northwest 445 512 34,000  Level FlightAware ADS-B
Wed 06:25:22 PM 43.6920 -89.4700 319° Northwest 446 513 34,000  Level FlightAware ADS-B
Wed 06:25:57 PM 43.7430 -89.5310 319° Northwest 447 514 34,000  Level FlightAware ADS-B
Wed 06:26:37 PM 43.8130 -89.6150 319° Northwest 448 516 34,000  Level FlightAware ADS-B
Wed 06:27:17 PM 43.8740 -89.6890 319° Northwest 449 517 34,000  Level FlightAware ADS-B
Wed 06:28:02 PM 43.9430 -89.7730 319° Northwest 450 518 34,000  Level FlightAware ADS-B
Wed 06:28:42 PM 44.0050 -89.8480 319° Northwest 451 519 34,000  Level FlightAware ADS-B
Wed 06:29:27 PM 44.0790 -89.9390 319° Northwest 452 520 34,000  Level FlightAware ADS-B
Wed 06:30:07 PM 44.1340 -90.0220 313° West 449 517 34,000  Level FlightAware ADS-B
Wed 06:30:47 PM 44.1840 -90.1130 307° West 448 516 34,000  Level FlightAware ADS-B
Wed 06:31:32 PM 44.2360 -90.2150 305° West 447 514 34,000  Level FlightAware ADS-B
Wed 06:32:12 PM 44.2740 -90.3230 296° West 446 513 34,000  Level FlightAware ADS-B
Wed 06:32:47 PM 44.3040 -90.4120 295° West 446 513 34,000  Level FlightAware ADS-B
Wed 06:33:32 PM 44.3430 -90.5280 295° West 446 513 34,000 -333 Level FlightAware ADS-B
Wed 06:34:17 PM 44.3810 -90.6460 294° West 445 512 33,500 -1,000 Descending FlightAware ADS-B
Wed 06:35:02 PM 44.4200 -90.7680 294° West 448 516 32,500 -1,200 Descending FlightAware ADS-B
Wed 06:35:42 PM 44.4550 -90.8740 295° West 448 516 31,800 -1,906 Descending FlightAware ADS-B
Wed 06:36:27 PM 44.4930 -90.9930 294° West 451 519 29,800 -2,965 Descending FlightAware ADS-B
Wed 06:37:07 PM 44.5280 -91.1020 294° West 453 521 27,600 -2,850 Descending FlightAware ADS-B
Wed 06:37:47 PM 44.5610 -91.2060 294° West 443 510 26,000 -2,471 Descending FlightAware ADS-B
Wed 06:38:32 PM 44.5980 -91.3230 294° West 432 497 24,100 -2,541 Descending FlightAware ADS-B
Wed 06:39:12 PM 44.6300 -91.4250 294° West 424 488 22,400 -2,400 Descending FlightAware ADS-B
Wed 06:39:52 PM 44.6610 -91.5220 294° West 414 476 20,900 -2,541 Descending FlightAware ADS-B
Wed 06:40:37 PM 44.6970 -91.6370 294° West 411 473 18,800 -2,541 Descending FlightAware ADS-B
Wed 06:41:17 PM 44.7250 -91.7290 293° West 402 463 17,300 -2,259 Descending FlightAware ADS-B
Wed 06:42:02 PM 44.7590 -91.8370 294° West 391 450 15,600 -2,259 Descending FlightAware ADS-B
Wed 06:42:42 PM 44.7880 -91.9310 294° West 385 443 14,100 -2,188 Descending FlightAware ADS-B
Wed 06:43:27 PM 44.8190 -92.0320 293° West 381 438 12,500 -2,118 Descending FlightAware ADS-B
Wed 06:44:07 PM 44.8480 -92.1250 294° West 374 430 11,100 -1,575 Descending FlightAware ADS-B
Wed 06:44:47 PM 44.8750 -92.2130 293° West 354 407 10,400 -776 Descending FlightAware ADS-B
Wed 06:45:32 PM 44.9030 -92.3050 293° West 361 415 10,000 -343 Descending FlightAware ADS-B
Wed 06:45:57 PM 44.9200 -92.3630 293° West 361 415 10,000  Level FlightAware ADS-B
Wed 06:46:27 PM 44.9390 -92.4280 292° West 336 387 10,000 -109 Level FlightAware ADS-B
Wed 06:46:52 PM 44.9480 -92.4710 286° West 311 358 9,900 -764 Descending FlightAware ADS-B
Wed 06:47:22 PM 44.9340 -92.5290 251° West 288 331 9,300 -900 Descending FlightAware ADS-B
Wed 06:47:52 PM 44.9110 -92.5720 233° Southwest 281 323 9,000 -327 Descending FlightAware ADS-B
Wed 06:48:17 PM 44.8900 -92.6110 233° Southwest 284 327 9,000  Level FlightAware ADS-B
Wed 06:48:47 PM 44.8660 -92.6560 233° Southwest 282 325 9,000  Level FlightAware ADS-B
Wed 06:49:12 PM 44.8480 -92.6890 232° Southwest 282 325 9,000 -450 Level FlightAware ADS-B
Wed 06:49:27 PM 44.8350 -92.7140 234° Southwest 281 323 8,700 -1,467 Descending FlightAware ADS-B
Wed 06:49:57 PM 44.8110 -92.7590 233° Southwest 285 328 7,900 -1,500 Descending FlightAware ADS-B
Wed 06:50:27 PM 44.7980 -92.8120 251° West 286 329 7,200 -1,418 Descending FlightAware ADS-B
Wed 06:50:52 PM 44.7960 -92.8540 266° West 279 321 6,600 -1,418 Descending FlightAware ADS-B
Wed 06:51:22 PM 44.7920 -92.9090 264° West 264 304 5,900 -1,440 Descending FlightAware ADS-B
Wed 06:51:42 PM 44.7910 -92.9400 267° West 256 295 5,400 -1,350 Descending FlightAware ADS-B
Wed 06:52:02 PM 44.7960 -92.9730 282° West 246 283 5,000 -1,320 Descending FlightAware ADS-B
Wed 06:52:32 PM 44.8110 -93.0140 297° West 230 265 4,300 -1,418 Descending FlightAware ADS-B
Wed 06:52:57 PM 44.8260 -93.0470 303° West 216 249 3,700 -1,309 Descending FlightAware ADS-B
Wed 06:53:27 PM 44.8410 -93.0820 301° West 204 235 3,100 -1,200 Descending FlightAware ADS-B
Wed 06:53:42 PM 44.8480 -93.0980 302° West 197 227 2,800 -1,050 Descending FlightAware ADS-B
Wed 06:54:07 PM 44.8590 -93.1240 301° West 173 199 2,400 -873 Descending FlightAware ADS-B
Wed 06:54:37 PM 44.8710 -93.1500 303° West 150 173 2,000 -800 Descending FlightAware ADS-B
Wed 06:55:07 PM 44.8810 -93.1760 299° West 146 168 1,600 -764 Descending FlightAware ADS-B
Wed 06:55:32 PM 44.8900 -93.1960 302° West 152 175 1,300 -750 Descending FlightAware ADS-B
Wed 06:55:47 PM 44.8950 -93.2080 300° West 152 175 1,100 -800 Descending FlightAware ADS-B

Login

Don't have an account? Register now (free) for customized features, flight alerts, and more!